Time;durP1;ratioP1;P1;durP2;ratioP2;P2;SDS_P1;SDS_P2;PMS_P1;PMS_P2;Temp;Humidity;BMP_temperature;BMP_pressure;BME280_temperature;BME280_humidity;BME280_pressure;Samples;Min_cycle;Max_cycle;Signal;HPM_P1;HPM_P2
2022/11/11 00:01:32;;;;;;;9.48;2.58;;;;;;;;;;5072593;28;20428;-68
2022/11/11 00:03:57;;;;;;;11.48;2.30;;;;;;;;;;5072451;28;20028;-68
2022/11/11 00:06:23;;;;;;;8.15;2.28;;;;;;;;;;5072544;28;20027;-68
2022/11/11 00:08:48;;;;;;;7.28;2.60;;;;;;;;;;5072699;28;20038;-68
2022/11/11 00:11:15;;;;;;;8.55;1.83;;;;;;;;;;5072531;28;20021;-68
2022/11/11 00:13:41;;;;;;;10.68;2.08;;;;;;;;;;5072452;28;20111;-67
2022/11/11 00:16:13;;;;;;;12.10;2.85;;;;;;;;;;5072715;28;20016;-68
2022/11/11 00:27:13;;;;;;;12.10;2.28;;;;;;;;;;5073055;28;20102;-66
2022/11/11 00:29:39;;;;;;;7.45;2.05;;;;;;;;;;5072567;28;20028;-68
2022/11/11 00:32:23;;;;;;;8.85;2.30;;;;;;;;;;5066772;28;20087;-68
2022/11/11 00:37:38;;;;;;;9.80;2.33;;;;;;;;;;5052725;28;20155;-68
2022/11/11 00:40:04;;;;;;;10.55;2.60;;;;;;;;;;5052211;28;20543;-69
2022/11/11 00:42:30;;;;;;;11.32;2.13;;;;;;;;;;5052272;28;20111;-68
2022/11/11 00:44:55;;;;;;;7.93;2.20;;;;;;;;;;5052358;28;20032;-66
2022/11/11 00:52:56;;;;;;;8.50;2.08;;;;;;;;;;5052605;28;20035;-68
2022/11/11 00:55:21;;;;;;;8.00;2.25;;;;;;;;;;5051972;28;20025;-68
2022/11/11 00:57:47;;;;;;;7.50;2.28;;;;;;;;;;5052387;28;20032;-68
2022/11/11 01:00:13;;;;;;;6.80;2.22;;;;;;;;;;5052295;28;20456;-68
2022/11/11 01:02:38;;;;;;;8.00;2.17;;;;;;;;;;5052110;28;20021;-67
2022/11/11 01:05:04;;;;;;;12.80;2.53;;;;;;;;;;5052108;28;20025;-67
2022/11/11 01:07:29;;;;;;;6.38;1.98;;;;;;;;;;5052496;28;20031;-68
2022/11/11 01:09:55;;;;;;;7.13;2.03;;;;;;;;;;5051033;28;20116;-67
2022/11/11 01:12:20;;;;;;;8.00;2.10;;;;;;;;;;5052373;28;20032;-67
2022/11/11 01:14:46;;;;;;;11.48;2.10;;;;;;;;;;5052251;28;20083;-65
2022/11/11 01:17:12;;;;;;;9.07;2.03;;;;;;;;;;5052032;28;20017;-66
2022/11/11 01:19:37;;;;;;;8.35;2.30;;;;;;;;;;5052084;28;20491;-68
2022/11/11 01:22:03;;;;;;;11.10;3.05;;;;;;;;;;5052195;28;20029;-67
2022/11/11 01:24:28;;;;;;;8.05;2.00;;;;;;;;;;5052048;28;20489;-66
2022/11/11 01:26:54;;;;;;;7.75;2.45;;;;;;;;;;5052343;28;20021;-68
2022/11/11 01:29:19;;;;;;;7.53;2.38;;;;;;;;;;5052100;28;20163;-65
2022/11/11 01:31:45;;;;;;;8.32;1.80;;;;;;;;;;5051694;28;20056;-67
2022/11/11 01:34:10;;;;;;;7.60;2.00;;;;;;;;;;5052114;28;20025;-67
2022/11/11 01:36:36;;;;;;;9.88;3.30;;;;;;;;;;5052125;28;20514;-67
2022/11/11 01:39:02;;;;;;;5.80;2.10;;;;;;;;;;5051863;28;20029;-66
2022/11/11 01:41:34;;;;;;;5.30;1.90;;;;;;;;;;5051971;28;20083;-67
2022/11/11 01:44:11;;;;;;;6.68;1.80;;;;;;;;;;5052061;28;20024;-67
2022/11/11 01:46:49;;;;;;;12.85;2.30;;;;;;;;;;5051884;28;20383;-65
2022/11/11 01:49:29;;;;;;;6.25;1.80;;;;;;;;;;5052056;28;20025;-66
2022/11/11 01:52:24;;;;;;;4.78;1.80;;;;;;;;;;5052094;28;20024;-66
2022/11/11 01:54:54;;;;;;;6.85;2.25;;;;;;;;;;5051985;28;20064;-68
2022/11/11 01:57:35;;;;;;;7.25;1.90;;;;;;;;;;5052044;28;20021;-67
2022/11/11 02:00:05;;;;;;;7.50;2.13;;;;;;;;;;5051876;28;20371;-66
2022/11/11 02:02:51;;;;;;;11.35;2.38;;;;;;;;;;5051753;28;20039;-68
2022/11/11 02:08:14;;;;;;;8.25;2.00;;;;;;;;;;5054837;28;20032;-67
2022/11/11 02:10:44;;;;;;;8.02;2.13;;;;;;;;;;5055542;28;20025;-66
2022/11/11 02:15:59;;;;;;;7.18;1.88;;;;;;;;;;5055584;28;20040;-67
2022/11/11 02:18:25;;;;;;;7.70;2.00;;;;;;;;;;5055350;28;20395;-68
2022/11/11 02:20:51;;;;;;;6.25;2.20;;;;;;;;;;5055321;28;20033;-66
2022/11/11 02:23:25;;;;;;;5.80;2.00;;;;;;;;;;5055257;28;20021;-68
2022/11/11 02:25:52;;;;;;;7.45;2.03;;;;;;;;;;5055310;28;20601;-67
2022/11/11 02:28:19;;;;;;;6.40;1.95;;;;;;;;;;5055297;28;20087;-68
2022/11/11 02:30:44;;;;;;;7.47;1.90;;;;;;;;;;5054972;28;20472;-68
2022/11/11 02:33:10;;;;;;;6.07;2.03;;;;;;;;;;5054953;28;20114;-67
2022/11/11 02:35:55;;;;;;;7.57;1.90;;;;;;;;;;5054908;28;20028;-66
2022/11/11 02:38:22;;;;;;;8.43;1.98;;;;;;;;;;5055139;28;20033;-66
2022/11/11 02:43:33;;;;;;;6.70;2.05;;;;;;;;;;5054746;28;20139;-66
2022/11/11 02:46:00;;;;;;;7.90;2.20;;;;;;;;;;5054953;28;20035;-65
2022/11/11 02:48:26;;;;;;;10.65;2.33;;;;;;;;;;5054787;28;20118;-66
2022/11/11 02:50:51;;;;;;;10.40;2.60;;;;;;;;;;5054891;28;20101;-66
2022/11/11 02:53:17;;;;;;;27.90;14.48;;;;;;;;;;5054617;28;20048;-66
2022/11/11 02:55:42;;;;;;;10.18;1.98;;;;;;;;;;5053355;28;20029;-65
2022/11/11 02:58:09;;;;;;;9.68;2.05;;;;;;;;;;5054383;28;20498;-66
2022/11/11 03:00:34;;;;;;;8.68;1.95;;;;;;;;;;5054721;28;20115;-67
2022/11/11 03:02:59;;;;;;;7.47;1.90;;;;;;;;;;5054473;28;20120;-67
2022/11/11 03:05:25;;;;;;;7.45;2.00;;;;;;;;;;5055957;28;20031;-66
2022/11/11 03:07:50;;;;;;;7.60;1.95;;;;;;;;;;5066307;28;20078;-67
2022/11/11 03:10:16;;;;;;;7.78;1.85;;;;;;;;;;5054379;28;20032;-67
2022/11/11 03:12:41;;;;;;;7.45;1.70;;;;;;;;;;5054350;28;20369;-67
2022/11/11 03:15:07;;;;;;;7.13;2.05;;;;;;;;;;5054237;28;20475;-66
2022/11/11 03:17:39;;;;;;;6.93;2.00;;;;;;;;;;5053804;28;20156;-67
2022/11/11 03:23:04;;;;;;;5.00;2.00;;;;;;;;;;5054177;28;20044;-66
2022/11/11 03:25:36;;;;;;;6.97;2.10;;;;;;;;;;5054128;28;20056;-68
2022/11/11 03:28:03;;;;;;;6.50;1.88;;;;;;;;;;5054092;28;20025;-67
2022/11/11 03:30:28;;;;;;;10.38;2.67;;;;;;;;;;5054080;28;20025;-66
2022/11/11 03:32:54;;;;;;;9.52;2.30;;;;;;;;;;5066207;28;20028;-67
2022/11/11 03:35:19;;;;;;;9.25;2.60;;;;;;;;;;5073967;28;20028;-68
2022/11/11 03:40:29;;;;;;;8.10;2.50;;;;;;;;;;5073744;28;20056;-67
2022/11/11 03:42:54;;;;;;;8.98;2.50;;;;;;;;;;5073604;28;20390;-68
2022/11/11 03:45:20;;;;;;;7.25;2.38;;;;;;;;;;5073506;28;20032;-66
2022/11/11 03:47:45;;;;;;;6.78;2.40;;;;;;;;;;5073704;28;20024;-67
2022/11/11 03:50:11;;;;;;;8.55;2.38;;;;;;;;;;5073689;28;20029;-66
2022/11/11 03:52:42;;;;;;;10.75;2.22;;;;;;;;;;5073579;28;20506;-67
2022/11/11 03:55:08;;;;;;;8.13;2.10;;;;;;;;;;5073535;28;20040;-67
2022/11/11 03:57:33;;;;;;;4.50;1.80;;;;;;;;;;5073257;28;20479;-66
2022/11/11 03:59:59;;;;;;;10.15;2.47;;;;;;;;;;5073454;28;20035;-66
2022/11/11 04:10:36;;;;;;;8.65;2.05;;;;;;;;;;5073331;28;20035;-65
2022/11/11 04:16:05;;;;;;;9.45;2.40;;;;;;;;;;5073404;28;20040;-67
2022/11/11 04:24:01;;;;;;;7.72;1.90;;;;;;;;;;5050981;28;20071;-67
2022/11/11 04:26:26;;;;;;;6.35;2.28;;;;;;;;;;5050553;28;20096;-66
2022/11/11 04:32:34;;;;;;;7.25;2.03;;;;;;;;;;5050589;28;20055;-67
2022/11/11 04:34:21;;;;;;;9.23;2.17;;;;;;;;;;5050484;28;20594;-68
2022/11/11 04:36:47;;;;;;;10.73;1.90;;;;;;;;;;5034079;28;20116;-67
2022/11/11 04:41:56;;;;;;;7.63;2.00;;;;;;;;;;5050647;28;20113;-67
2022/11/11 04:47:05;;;;;;;6.43;2.15;;;;;;;;;;5050355;28;20032;-68
2022/11/11 04:49:31;;;;;;;6.63;1.98;;;;;;;;;;5050654;28;20049;-67
2022/11/11 04:56:46;;;;;;;7.07;2.20;;;;;;;;;;5050432;28;20032;-67
2022/11/11 04:57:25;;;;;;;5.10;1.88;;;;;;;;;;5050893;28;20061;-67
2022/11/11 04:59:51;;;;;;;6.60;1.92;;;;;;;;;;5052692;28;20053;-65
2022/11/11 05:05:00;;;;;;;5.05;2.38;;;;;;;;;;5052553;28;20029;-65
2022/11/11 05:10:10;;;;;;;8.10;2.13;;;;;;;;;;5052579;28;20052;-67
2022/11/11 05:12:35;;;;;;;8.88;2.13;;;;;;;;;;5052510;28;20426;-66
2022/11/11 05:23:12;;;;;;;6.70;2.05;;;;;;;;;;5052096;28;20075;-65
2022/11/11 05:25:38;;;;;;;7.30;2.40;;;;;;;;;;5052433;28;20040;-67
2022/11/11 05:28:03;;;;;;;7.70;2.40;;;;;;;;;;5052285;28;20032;-65
2022/11/11 05:30:29;;;;;;;5.75;2.20;;;;;;;;;;5052102;28;20472;-67
2022/11/11 05:32:55;;;;;;;8.30;2.20;;;;;;;;;;5064734;28;20035;-68
2022/11/11 05:35:21;;;;;;;7.13;2.00;;;;;;;;;;5072231;28;20475;-67
2022/11/11 05:38:19;;;;;;;9.48;2.50;;;;;;;;;;5071998;28;20086;-67
2022/11/11 05:40:34;;;;;;;10.02;2.38;;;;;;;;;;5072497;28;20521;-67
2022/11/11 05:43:00;;;;;;;7.78;2.20;;;;;;;;;;5075940;28;20112;-66
2022/11/11 05:45:25;;;;;;;5.80;2.13;;;;;;;;;;5075997;28;20039;-66
2022/11/11 05:47:51;;;;;;;6.63;2.22;;;;;;;;;;5075758;28;20059;-66
2022/11/11 05:50:16;;;;;;;7.68;2.35;;;;;;;;;;5075662;28;20032;-67
2022/11/11 05:52:48;;;;;;;8.95;2.25;;;;;;;;;;5075757;28;20055;-67
2022/11/11 05:55:13;;;;;;;6.88;2.20;;;;;;;;;;5075808;28;20027;-66
2022/11/11 05:57:38;;;;;;;7.13;2.70;;;;;;;;;;5075832;28;20016;-67
2022/11/11 06:00:04;;;;;;;8.27;2.65;;;;;;;;;;5075698;28;20052;-67
2022/11/11 06:02:30;;;;;;;7.88;2.50;;;;;;;;;;5075695;28;20028;-67
2022/11/11 06:04:55;;;;;;;10.35;2.47;;;;;;;;;;5075693;28;20059;-68
2022/11/11 06:07:21;;;;;;;9.65;2.75;;;;;;;;;;5075264;28;20036;-67
2022/11/11 06:09:46;;;;;;;9.23;2.85;;;;;;;;;;5075682;28;20036;-67
2022/11/11 06:12:12;;;;;;;11.93;2.97;;;;;;;;;;5075535;28;20371;-67
2022/11/11 06:14:37;;;;;;;9.18;2.70;;;;;;;;;;5075450;28;20021;-66
2022/11/11 06:17:03;;;;;;;10.02;2.88;;;;;;;;;;5075537;28;20037;-65
2022/11/11 06:19:28;;;;;;;8.25;2.70;;;;;;;;;;5075346;28;20521;-67
2022/11/11 06:21:56;;;;;;;9.98;3.63;;;;;;;;;;5074826;28;20492;-67
2022/11/11 06:24:22;;;;;;;7.75;3.03;;;;;;;;;;5075318;28;20021;-66
2022/11/11 06:26:48;;;;;;;8.43;3.00;;;;;;;;;;5075415;28;20103;-67
2022/11/11 06:29:13;;;;;;;9.25;3.08;;;;;;;;;;5075360;28;20386;-67
2022/11/11 06:31:39;;;;;;;8.07;2.78;;;;;;;;;;5074958;28;20032;-67
2022/11/11 06:34:04;;;;;;;9.40;3.30;;;;;;;;;;5075113;28;20590;-66
2022/11/11 06:36:30;;;;;;;9.77;3.60;;;;;;;;;;5074857;28;20024;-68
2022/11/11 06:38:55;;;;;;;9.10;3.70;;;;;;;;;;5074999;28;20028;-66
2022/11/11 06:41:23;;;;;;;10.52;3.63;;;;;;;;;;5074725;28;20050;-69
2022/11/11 06:43:48;;;;;;;11.00;3.45;;;;;;;;;;5073412;28;20452;-65
2022/11/11 06:46:23;;;;;;;7.43;3.47;;;;;;;;;;5074857;28;20056;-66
2022/11/11 06:48:49;;;;;;;13.07;4.18;;;;;;;;;;5074606;28;20023;-67
2022/11/11 06:51:14;;;;;;;7.35;3.63;;;;;;;;;;5074634;28;20028;-68
2022/11/11 06:53:40;;;;;;;9.07;3.28;;;;;;;;;;5073858;28;20017;-66
2022/11/11 06:56:07;;;;;;;7.00;2.95;;;;;;;;;;5074996;28;20028;-67
2022/11/11 06:58:33;;;;;;;7.85;3.60;;;;;;;;;;5074688;28;20028;-66
2022/11/11 07:00:58;;;;;;;10.68;3.25;;;;;;;;;;5074737;28;20029;-67
2022/11/11 07:03:24;;;;;;;8.48;4.07;;;;;;;;;;5074539;28;20115;-67
2022/11/11 07:05:50;;;;;;;9.98;3.83;;;;;;;;;;5074335;28;20023;-67
2022/11/11 07:08:17;;;;;;;11.57;4.18;;;;;;;;;;5074324;28;20471;-67
2022/11/11 07:10:45;;;;;;;6.97;3.42;;;;;;;;;;5074433;28;20504;-67
2022/11/11 07:13:11;;;;;;;8.77;3.75;;;;;;;;;;5074263;28;20428;-66
2022/11/11 07:15:37;;;;;;;9.07;3.63;;;;;;;;;;5074200;28;20020;-65
2022/11/11 07:18:03;;;;;;;9.07;3.78;;;;;;;;;;5074196;28;20048;-66
2022/11/11 07:20:29;;;;;;;10.07;3.78;;;;;;;;;;5073844;28;20387;-65
2022/11/11 07:22:54;;;;;;;13.88;4.00;;;;;;;;;;5074110;28;20024;-66
2022/11/11 07:25:20;;;;;;;6.65;3.10;;;;;;;;;;5074041;28;20329;-67
2022/11/11 07:27:45;;;;;;;11.65;4.05;;;;;;;;;;5074046;28;20021;-67
2022/11/11 07:30:11;;;;;;;8.15;3.72;;;;;;;;;;5073936;28;20029;-66
2022/11/11 07:32:44;;;;;;;8.90;3.50;;;;;;;;;;5073527;28;20029;-66
2022/11/11 07:35:10;;;;;;;9.73;3.83;;;;;;;;;;5073227;28;20021;-67
2022/11/11 07:37:36;;;;;;;8.90;3.95;;;;;;;;;;5073558;28;20028;-66
2022/11/11 07:40:01;;;;;;;9.00;3.67;;;;;;;;;;5073429;28;20161;-66
2022/11/11 07:42:27;;;;;;;11.07;4.20;;;;;;;;;;5073725;28;20025;-68
2022/11/11 07:44:52;;;;;;;10.05;4.18;;;;;;;;;;5073663;28;20379;-66
2022/11/11 07:47:19;;;;;;;12.00;3.92;;;;;;;;;;5073501;28;20021;-67
2022/11/11 07:49:44;;;;;;;12.43;3.65;;;;;;;;;;5072870;28;20528;-67
2022/11/11 07:52:09;;;;;;;10.18;4.25;;;;;;;;;;5073399;28;20020;-67
2022/11/11 07:54:35;;;;;;;7.65;3.88;;;;;;;;;;5073395;28;20032;-66
2022/11/11 07:57:00;;;;;;;10.85;4.93;;;;;;;;;;5073431;28;20112;-66
2022/11/11 07:59:26;;;;;;;9.93;3.83;;;;;;;;;;5073449;28;20509;-67
2022/11/11 08:01:52;;;;;;;8.70;3.85;;;;;;;;;;5073274;28;20086;-67
2022/11/11 08:04:17;;;;;;;8.70;3.67;;;;;;;;;;5072938;28;20031;-67
2022/11/11 08:06:42;;;;;;;8.23;3.45;;;;;;;;;;5073428;28;20024;-68
2022/11/11 08:09:08;;;;;;;8.07;3.35;;;;;;;;;;5073126;28;20060;-67
2022/11/11 08:14:17;;;;;;;5.72;2.75;;;;;;;;;;5073405;28;20034;-66
2022/11/11 08:16:43;;;;;;;8.68;3.90;;;;;;;;;;5073202;28;20032;-66
2022/11/11 08:19:08;;;;;;;8.30;3.30;;;;;;;;;;5072883;28;20435;-66
2022/11/11 08:21:34;;;;;;;10.00;3.35;;;;;;;;;;5072796;28;20028;-66
2022/11/11 08:23:59;;;;;;;8.82;3.30;;;;;;;;;;5073191;28;20115;-66
2022/11/11 08:26:25;;;;;;;8.68;3.35;;;;;;;;;;5073164;28;20013;-67
2022/11/11 08:28:52;;;;;;;9.55;3.30;;;;;;;;;;5073121;28;20453;-66
2022/11/11 08:31:17;;;;;;;9.75;3.00;;;;;;;;;;5072984;28;20031;-66
2022/11/11 08:33:43;;;;;;;7.53;3.20;;;;;;;;;;5072285;28;20115;-66
2022/11/11 08:36:10;;;;;;;6.78;3.15;;;;;;;;;;5072915;28;20100;-66
2022/11/11 08:38:36;;;;;;;6.97;2.90;;;;;;;;;;5072698;28;20559;-66
2022/11/11 08:41:03;;;;;;;6.90;3.17;;;;;;;;;;5072675;28;20056;-66
2022/11/11 08:43:31;;;;;;;8.52;2.97;;;;;;;;;;5072804;28;20028;-67
2022/11/11 08:45:59;;;;;;;11.48;3.20;;;;;;;;;;5072906;28;20051;-67
2022/11/11 08:48:25;;;;;;;11.68;3.30;;;;;;;;;;5072595;28;20078;-66
2022/11/11 08:50:52;;;;;;;6.13;2.78;;;;;;;;;;5072823;28;20036;-67
2022/11/11 08:53:18;;;;;;;11.30;3.40;;;;;;;;;;5072702;28;20045;-67
2022/11/11 08:55:44;;;;;;;7.97;3.53;;;;;;;;;;5072759;28;20033;-66
2022/11/11 08:58:11;;;;;;;9.63;3.00;;;;;;;;;;5072734;28;20028;-66
2022/11/11 09:00:36;;;;;;;8.88;2.97;;;;;;;;;;5072331;28;20051;-68
2022/11/11 09:03:06;;;;;;;9.30;3.22;;;;;;;;;;5072632;28;20531;-68
2022/11/11 09:05:32;;;;;;;;;;;;;;;;;;5072880;28;20021;-67
2022/11/11 09:08:05;;;;;;;9.15;3.20;;;;;;;;;;5072609;28;20398;-68
2022/11/11 09:10:31;;;;;;;7.75;3.28;;;;;;;;;;5072580;28;20032;-69
2022/11/11 09:12:58;;;;;;;11.95;3.53;;;;;;;;;;5072677;28;20077;-68
2022/11/11 09:15:23;;;;;;;8.90;3.38;;;;;;;;;;5072681;28;20089;-68
2022/11/11 09:17:49;;;;;;;10.82;4.85;;;;;;;;;;5076637;28;20025;-68
2022/11/11 09:20:14;;;;;;;9.40;3.70;;;;;;;;;;5076677;28;20455;-68
2022/11/11 09:22:44;;;;;;;8.27;3.20;;;;;;;;;;5076660;28;20379;-68
2022/11/11 09:25:09;;;;;;;6.72;3.13;;;;;;;;;;5076425;28;20028;-67
2022/11/11 09:27:35;;;;;;;7.43;4.00;;;;;;;;;;5076544;28;20027;-68
2022/11/11 09:30:00;;;;;;;10.43;3.38;;;;;;;;;;5076224;28;20089;-67
2022/11/11 09:32:26;;;;;;;9.07;3.33;;;;;;;;;;5076151;28;20025;-69
2022/11/11 09:34:54;;;;;;;8.73;3.90;;;;;;;;;;5076339;28;20032;-65
2022/11/11 09:37:20;;;;;;;14.27;3.53;;;;;;;;;;5075870;28;20035;-67
2022/11/11 09:39:45;;;;;;;10.88;3.38;;;;;;;;;;5074523;28;20487;-66
2022/11/11 09:42:36;;;;;;;10.73;3.70;;;;;;;;;;5074495;28;20040;-66
2022/11/11 09:45:39;;;;;;;9.45;3.17;;;;;;;;;;5073658;28;20056;-66
2022/11/11 09:48:37;;;;;;;9.05;3.60;;;;;;;;;;5073731;28;20024;-67
2022/11/11 09:51:08;;;;;;;10.57;3.42;;;;;;;;;;5073249;28;20028;-66
2022/11/11 09:53:40;;;;;;;7.97;3.33;;;;;;;;;;5071819;28;20428;-65
2022/11/11 09:56:10;;;;;;;7.13;3.10;;;;;;;;;;5074402;28;20027;-66
2022/11/11 09:58:45;;;;;;;10.90;3.65;;;;;;;;;;5072389;28;20493;-67
2022/11/11 10:01:25;;;;;;;10.43;3.60;;;;;;;;;;5074092;28;20058;-66
2022/11/11 10:04:04;;;;;;;9.43;3.27;;;;;;;;;;5074453;28;20020;-69
2022/11/11 10:06:32;;;;;;;8.18;3.45;;;;;;;;;;5074428;28;20028;-66
2022/11/11 10:09:13;;;;;;;9.50;4.50;;;;;;;;;;5055356;28;20017;-65
2022/11/11 10:11:38;;;;;;;9.63;3.42;;;;;;;;;;5055641;28;20115;-66
2022/11/11 10:14:04;;;;;;;9.73;3.45;;;;;;;;;;5064544;28;20100;-65
2022/11/11 10:16:57;;;;;;;11.10;3.97;;;;;;;;;;5075260;28;20025;-66
2022/11/11 10:19:28;;;;;;;10.30;3.20;;;;;;;;;;5075356;28;20085;-65
2022/11/11 10:22:33;;;;;;;10.10;3.25;;;;;;;;;;5074305;28;20051;-69
2022/11/11 10:25:06;;;;;;;6.30;2.88;;;;;;;;;;5067269;28;20038;-67
2022/11/11 10:27:32;;;;;;;13.73;3.30;;;;;;;;;;5073131;28;20429;-65
2022/11/11 10:30:07;;;;;;;10.38;3.05;;;;;;;;;;5068272;28;20032;-67
2022/11/11 10:32:34;;;;;;;8.20;3.20;;;;;;;;;;5064156;28;20072;-66
2022/11/11 10:35:16;;;;;;;7.07;2.78;;;;;;;;;;5074888;28;20059;-67
2022/11/11 10:37:42;;;;;;;8.13;3.08;;;;;;;;;;5074785;28;20031;-65
2022/11/11 10:40:10;;;;;;;6.38;3.00;;;;;;;;;;5074854;28;20137;-67
2022/11/11 10:42:36;;;;;;;9.35;3.00;;;;;;;;;;5074527;28;20032;-65
2022/11/11 10:45:07;;;;;;;7.68;2.97;;;;;;;;;;5075075;28;20103;-66
2022/11/11 10:47:51;;;;;;;8.63;3.05;;;;;;;;;;5074817;28;20023;-65
2022/11/11 10:50:33;;;;;;;8.07;3.90;;;;;;;;;;5074908;28;20059;-65
2022/11/11 10:53:07;;;;;;;8.43;3.45;;;;;;;;;;5074550;28;20597;-65
2022/11/11 10:55:51;;;;;;;9.30;2.92;;;;;;;;;;5074600;28;20117;-65
2022/11/11 10:58:26;;;;;;;6.43;2.95;;;;;;;;;;5074984;28;20111;-67
2022/11/11 11:00:53;;;;;;;6.53;3.00;;;;;;;;;;5075208;28;20025;-65
2022/11/11 11:03:23;;;;;;;8.98;3.03;;;;;;;;;;5074219;28;20119;-65
2022/11/11 11:06:15;;;;;;;5.78;3.10;;;;;;;;;;5074256;28;20087;-65
2022/11/11 11:08:46;;;;;;;5.82;3.10;;;;;;;;;;5074320;28;20025;-67
2022/11/11 11:11:30;;;;;;;7.45;3.63;;;;;;;;;;5073896;28;20020;-66
2022/11/11 11:14:02;;;;;;;10.93;3.30;;;;;;;;;;5074109;28;20031;-65
2022/11/11 11:16:33;;;;;;;9.93;3.47;;;;;;;;;;5073527;28;20036;-65
2022/11/11 11:19:12;;;;;;;;;;;;;;;;;;5074472;28;20494;-66
2022/11/11 11:21:52;;;;;;;8.60;2.85;;;;;;;;;;5074051;28;19919;-66
2022/11/11 11:24:23;;;;;;;8.68;3.40;;;;;;;;;;5073673;28;20024;-66
2022/11/11 11:26:52;;;;;;;11.50;3.75;;;;;;;;;;5073789;28;20037;-66
2022/11/11 11:29:28;;;;;;;8.00;4.00;;;;;;;;;;5073797;28;20036;-65
2022/11/11 11:31:55;;;;;;;9.85;3.72;;;;;;;;;;5073561;28;20024;-67
2022/11/11 11:34:20;;;;;;;8.68;3.83;;;;;;;;;;5073548;28;20059;-66
2022/11/11 11:37:01;;;;;;;6.93;3.13;;;;;;;;;;5073491;28;20060;-67
2022/11/11 11:39:38;;;;;;;8.90;3.97;;;;;;;;;;5073002;28;20084;-67
2022/11/11 11:42:05;;;;;;;11.45;4.03;;;;;;;;;;5073113;28;20142;-67
2022/11/11 11:44:36;;;;;;;8.98;3.38;;;;;;;;;;5073281;28;20179;-67
2022/11/11 11:47:18;;;;;;;8.43;3.70;;;;;;;;;;5073141;28;20029;-66
2022/11/11 11:50:03;;;;;;;7.40;3.55;;;;;;;;;;5073296;28;20040;-68
2022/11/11 11:52:37;;;;;;;7.25;3.25;;;;;;;;;;5073218;28;20028;-66
2022/11/11 11:55:20;;;;;;;7.82;3.45;;;;;;;;;;5072125;28;20059;-66
2022/11/11 11:58:01;;;;;;;8.60;3.22;;;;;;;;;;5073318;28;20025;-66
2022/11/11 12:00:35;;;;;;;7.95;3.53;;;;;;;;;;5073324;28;20028;-68
2022/11/11 12:03:04;;;;;;;6.72;3.45;;;;;;;;;;5073501;28;20059;-67
2022/11/11 12:05:45;;;;;;;5.18;2.72;;;;;;;;;;5073048;28;20032;-68
2022/11/11 12:08:36;;;;;;;9.77;4.20;;;;;;;;;;5073305;28;20417;-68
2022/11/11 12:11:16;;;;;;;7.72;3.40;;;;;;;;;;5073286;28;20028;-68
2022/11/11 12:13:57;;;;;;;10.48;3.88;;;;;;;;;;5073133;28;20035;-68
2022/11/11 12:16:30;;;;;;;9.13;3.60;;;;;;;;;;5073270;28;20025;-68
2022/11/11 12:19:11;;;;;;;6.82;3.63;;;;;;;;;;5073166;28;20017;-68
2022/11/11 12:22:03;;;;;;;10.90;3.80;;;;;;;;;;5072871;28;20020;-66
2022/11/11 12:24:51;;;;;;;8.57;3.47;;;;;;;;;;5072240;28;20021;-69
2022/11/11 12:27:29;;;;;;;9.02;3.65;;;;;;;;;;5072557;28;20029;-68
2022/11/11 12:30:18;;;;;;;7.50;3.50;;;;;;;;;;5068561;28;20031;-68
2022/11/11 12:33:08;;;;;;;9.10;3.22;;;;;;;;;;5069466;28;20031;-67
2022/11/11 12:35:58;;;;;;;8.40;3.60;;;;;;;;;;5052721;28;20433;-68
2022/11/11 12:38:53;;;;;;;7.40;3.55;;;;;;;;;;5055356;28;20414;-68
2022/11/11 12:41:27;;;;;;;7.57;3.20;;;;;;;;;;5044950;28;21131;-69
2022/11/11 12:44:04;;;;;;;9.30;3.63;;;;;;;;;;5050359;28;20033;-69
2022/11/11 12:46:57;;;;;;;6.90;3.50;;;;;;;;;;5050647;28;20041;-68
2022/11/11 12:49:44;;;;;;;7.50;3.30;;;;;;;;;;5050495;28;20503;-65
2022/11/11 12:52:34;;;;;;;8.00;3.17;;;;;;;;;;5049998;28;20049;-66
2022/11/11 12:55:13;;;;;;;11.38;3.58;;;;;;;;;;5050374;28;20473;-65
2022/11/11 12:57:56;;;;;;;7.47;3.40;;;;;;;;;;5050310;28;20160;-65
2022/11/11 13:00:23;;;;;;;6.70;2.88;;;;;;;;;;5050098;28;20033;-65
2022/11/11 13:03:10;;;;;;;7.78;3.85;;;;;;;;;;5050207;28;20094;-65
2022/11/11 13:06:00;;;;;;;8.35;3.17;;;;;;;;;;5050253;28;20148;-65
2022/11/11 13:08:34;;;;;;;7.57;3.70;;;;;;;;;;5050042;28;20025;-65
2022/11/11 13:11:13;;;;;;;7.15;3.28;;;;;;;;;;5050217;28;20044;-65
2022/11/11 13:13:49;;;;;;;6.60;3.75;;;;;;;;;;5050178;28;20040;-65
2022/11/11 13:16:20;;;;;;;10.93;3.58;;;;;;;;;;5050190;28;20064;-68
2022/11/11 13:18:55;;;;;;;7.10;3.20;;;;;;;;;;5066351;28;20037;-67
2022/11/11 13:21:49;;;;;;;7.13;2.97;;;;;;;;;;5072107;28;20110;-66
2022/11/11 13:24:20;;;;;;;5.50;3.03;;;;;;;;;;5069509;28;20085;-67
2022/11/11 13:27:01;;;;;;;5.82;3.10;;;;;;;;;;5072432;28;20071;-66
2022/11/11 13:29:58;;;;;;;6.38;3.10;;;;;;;;;;5072250;28;20028;-67
2022/11/11 13:32:46;;;;;;;5.60;3.33;;;;;;;;;;5072103;28;20039;-66
2022/11/11 13:35:20;;;;;;;5.70;3.38;;;;;;;;;;5070388;28;20553;-66
2022/11/11 13:37:46;;;;;;;7.97;3.75;;;;;;;;;;5051981;28;20029;-65
2022/11/11 13:40:32;;;;;;;7.03;3.50;;;;;;;;;;5051963;28;20041;-66
2022/11/11 13:42:59;;;;;;;7.60;3.90;;;;;;;;;;5051838;28;20468;-65
2022/11/11 13:45:42;;;;;;;6.97;3.60;;;;;;;;;;5052032;28;20104;-66
2022/11/11 13:48:20;;;;;;;9.38;3.55;;;;;;;;;;5052050;28;20021;-66
2022/11/11 13:50:46;;;;;;;7.32;3.60;;;;;;;;;;5050716;28;20021;-66
2022/11/11 13:53:35;;;;;;;9.82;3.83;;;;;;;;;;5051910;28;20093;-67
2022/11/11 13:56:02;;;;;;;9.73;4.05;;;;;;;;;;5051685;28;20037;-67
2022/11/11 13:58:39;;;;;;;8.27;4.15;;;;;;;;;;5051968;28;20126;-66
2022/11/11 14:01:07;;;;;;;7.30;3.92;;;;;;;;;;5051682;28;20059;-64
2022/11/11 14:03:35;;;;;;;9.23;3.83;;;;;;;;;;5055237;28;20036;-65
2022/11/11 14:06:13;;;;;;;6.50;3.72;;;;;;;;;;5055259;28;20032;-65
2022/11/11 14:08:44;;;;;;;6.95;4.25;;;;;;;;;;5055491;28;20067;-68
2022/11/11 14:11:34;;;;;;;10.13;4.88;;;;;;;;;;5055393;28;20029;-65
2022/11/11 14:14:25;;;;;;;9.50;4.40;;;;;;;;;;5055529;28;20537;-66
2022/11/11 14:16:53;;;;;;;8.80;3.90;;;;;;;;;;5013404;28;20149;-64
2022/11/11 14:19:19;;;;;;;8.00;3.95;;;;;;;;;;5013388;28;20520;-65
2022/11/11 14:22:25;;;;;;;7.28;4.03;;;;;;;;;;5013193;28;20076;-65
2022/11/11 14:24:51;;;;;;;8.77;4.03;;;;;;;;;;5013586;28;20037;-65
2022/11/11 14:27:24;;;;;;;7.45;3.85;;;;;;;;;;5013272;28;20057;-65
2022/11/11 14:29:52;;;;;;;8.70;4.40;;;;;;;;;;5013327;28;20030;-66
2022/11/11 14:32:52;;;;;;;9.93;4.40;;;;;;;;;;5013162;28;20397;-65
2022/11/11 14:35:22;;;;;;;;;;;;;;;;;;5013503;28;20034;-65
2022/11/11 14:38:04;;;;;;;10.23;4.47;;;;;;;;;;5013205;28;20012;-65
2022/11/11 14:40:31;;;;;;;7.90;4.18;;;;;;;;;;5012959;28;20528;-65
2022/11/11 14:42:59;;;;;;;7.93;4.03;;;;;;;;;;5013097;28;20571;-65
2022/11/11 14:45:30;;;;;;;8.02;4.32;;;;;;;;;;5013027;28;20029;-65
2022/11/11 14:47:57;;;;;;;5.95;3.78;;;;;;;;;;5012526;28;20041;-65
2022/11/11 14:50:31;;;;;;;10.15;4.13;;;;;;;;;;4996251;28;20022;-65
2022/11/11 14:53:07;;;;;;;9.60;4.20;;;;;;;;;;5023091;28;20043;-65
2022/11/11 14:55:38;;;;;;;8.27;4.20;;;;;;;;;;5073652;28;20447;-66
2022/11/11 14:58:07;;;;;;;8.30;4.05;;;;;;;;;;5074508;28;20086;-65
2022/11/11 15:00:48;;;;;;;10.40;4.63;;;;;;;;;;5074411;28;20108;-66
2022/11/11 15:03:24;;;;;;;8.05;3.97;;;;;;;;;;5073848;28;20153;-67
2022/11/11 15:06:02;;;;;;;7.82;4.30;;;;;;;;;;5074375;28;20020;-65
2022/11/11 15:08:43;;;;;;;6.60;4.00;;;;;;;;;;5074366;28;20020;-67
2022/11/11 15:11:21;;;;;;;7.82;4.10;;;;;;;;;;5074204;28;20031;-66
2022/11/11 15:13:58;;;;;;;11.75;4.18;;;;;;;;;;5073426;28;20028;-66
2022/11/11 15:16:48;;;;;;;9.43;4.65;;;;;;;;;;5074173;28;20471;-66
2022/11/11 15:19:25;;;;;;;11.98;4.57;;;;;;;;;;5073915;28;20533;-68
2022/11/11 15:22:08;;;;;;;9.85;4.60;;;;;;;;;;5073835;28;20056;-67
2022/11/11 15:25:24;;;;;;;18.02;6.30;;;;;;;;;;5073954;28;20028;-67
2022/11/11 15:28:10;;;;;;;10.57;5.10;;;;;;;;;;5034833;28;20032;-66
2022/11/11 15:30:49;;;;;;;13.30;5.07;;;;;;;;;;5051697;28;20041;-67
2022/11/11 15:33:29;;;;;;;11.95;5.03;;;;;;;;;;5035939;28;20025;-67
2022/11/11 15:35:54;;;;;;;10.73;5.50;;;;;;;;;;5031793;28;20232;-68
2022/11/11 15:38:20;;;;;;;10.70;5.50;;;;;;;;;;5014801;28;20116;-66
2022/11/11 15:40:48;;;;;;;12.30;5.65;;;;;;;;;;5031342;28;20049;-67
2022/11/11 15:43:22;;;;;;;13.98;6.65;;;;;;;;;;5031304;28;20041;-66
2022/11/11 15:46:05;;;;;;;14.52;6.72;;;;;;;;;;5031387;28;20501;-66
2022/11/11 15:48:39;;;;;;;12.60;6.18;;;;;;;;;;5031286;28;20115;-66
2022/11/11 15:51:28;;;;;;;16.42;7.13;;;;;;;;;;5031355;28;20041;-66
2022/11/11 15:54:27;;;;;;;15.52;6.78;;;;;;;;;;5031403;28;20044;-66
2022/11/11 15:56:54;;;;;;;10.15;6.30;;;;;;;;;;5031237;28;20083;-66
2022/11/11 15:59:28;;;;;;;13.27;7.10;;;;;;;;;;5031459;28;20029;-66
2022/11/11 16:01:55;;;;;;;18.65;7.00;;;;;;;;;;5031138;28;20029;-67
2022/11/11 16:04:23;;;;;;;15.55;7.03;;;;;;;;;;5051988;28;20025;-68
2022/11/11 16:06:49;;;;;;;12.20;7.18;;;;;;;;;;5053191;28;20032;-68
2022/11/11 16:09:22;;;;;;;14.35;7.90;;;;;;;;;;5053169;28;20465;-68
2022/11/11 16:11:50;;;;;;;25.05;12.45;;;;;;;;;;5053285;28;20166;-66
2022/11/11 16:14:48;;;;;;;49.42;21.83;;;;;;;;;;5053239;28;20020;-65
2022/11/11 16:17:14;;;;;;;94.50;40.30;;;;;;;;;;5040809;28;20041;-66
2022/11/11 16:19:43;;;;;;;80.60;36.10;;;;;;;;;;5053126;28;20029;-66
2022/11/11 16:22:19;;;;;;;88.70;37.20;;;;;;;;;;5052990;28;20494;-65